Bookmark and Share
Track history (hours):
 

Sisu Castor

Last reported at 2013-Mar-05 19:31 UTC. Time now 2014-Apr-23 19:12 UTC.
Position N 37°48' E 025°49'.
Warning: this ship's position is years out of date!

Length 93 m; draft 3.7 m.

Type: Cargo ship. MMSI: 304916000.

NotesDate/timePositionNaut miles runAvg speedWind from/ knotsBaromVisibWave heightAir tempDewpointWater temp
2013-Mar-05 19:31N 37°48' E 025°49'8 8.1
2013-Mar-05 18:33N 37°42' E 025°41'8 8.3
2013-Mar-05 17:33N 37°38' E 025°33'9 9.2
2013-Mar-05 16:33N 37°33' E 025°23'9 8.8
2013-Mar-05 15:33N 37°30' E 025°13'9 9.2
2013-Mar-05 14:33N 37°26' E 025°02'3 3.1
2013-Mar-05 13:32N 37°25' E 024°58'0 0.1
2013-Mar-05 12:32N 37°25' E 024°58'0 0.0
2013-Mar-05 11:32N 37°25' E 024°58'0 0.0
2013-Mar-05 10:32N 37°25' E 024°58'0 0.0
2013-Mar-05 09:32N 37°25' E 024°58'0 0.0
2013-Mar-05 08:32N 37°25' E 024°58'0 0.0
2013-Mar-05 07:32N 37°25' E 024°58'0 0.4
2013-Mar-05 06:32N 37°25' E 024°58'0 0.0
2013-Mar-05 05:32N 37°25' E 024°58'0 0.0
2013-Mar-05 04:32N 37°25' E 024°58'0 0.0
2013-Mar-05 03:32N 37°25' E 024°58'0 0.0
2013-Mar-05 02:32N 37°25' E 024°58'2 2.4
2013-Mar-05 01:33N 37°23' E 025°01'9 8.7
2013-Mar-05 00:33N 37°21' E 024°50'9 8.9
2013-Mar-04 23:33N 37°25' E 024°40'10 9.6
2013-Mar-04 22:33N 37°29' E 024°29'10 9.7
2013-Mar-04 21:33N 37°30' E 024°17'10 9.6
2013-Mar-04 20:33N 37°33' E 024°05'10 9.8
2013-Mar-04 19:30N 37°36' E 023°53'9 9.2
2013-Mar-04 18:33N 37°39' E 023°42'10 9.7
2013-Mar-04 17:33N 37°48' E 023°37'9 9.2
2013-Mar-04 16:33N 37°50' E 023°25'11 9.9
2013-Mar-04 15:27N 37°52' E 023°12'9 9.2
2013-Mar-04 14:31N 37°55' E 023°01'12 5.8
2013-Mar-04 12:24N 38°04' E 022°51'9 9.8
2013-Mar-04 11:29N 38°11' E 022°59'2 0.3
2013-Mar-04 05:23N 38°12' E 022°57'3 3.8
2013-Mar-04 04:32N 38°10' E 022°55'5 5.3
2013-Mar-04 03:32N 38°11' E 022°49'6 6.1
2013-Mar-04 02:31N 38°12' E 022°41'42 7.7
2013-Mar-03 21:05N 38°20' E 021°49'5 8.0
2013-Mar-03 20:30N 38°18' E 021°44'10 8.3
2013-Mar-03 19:17N 38°15' E 021°32'6 8.3
2013-Mar-03 18:33N 38°14' E 021°24'10 8.0
2013-Mar-03 17:20N 38°10' E 021°13'7 8.4
2013-Mar-03 16:27N 38°06' E 021°05'8 8.5
2013-Mar-03 15:33N 38°02' E 020°56'30 8.8
2013-Mar-03 12:06N 37°58' E 020°18'  
2013-Feb-28 00:17N 42°34' E 006°17'911.3
2013-Feb-27 23:31N 42°39' E 006°07'1010.9
2013-Feb-27 22:33N 42°45' E 005°55'1010.4
2013-Feb-27 21:33N 42°51' E 005°43'10 9.5
2013-Feb-27 20:33N 42°56' E 005°33'1310.1
2013-Feb-27 19:19N 43°03' E 005°19'911.0
2013-Feb-27 18:32N 43°08' E 005°09'1010.6
2013-Feb-27 17:33N 43°16' E 004°59'10 9.8
2013-Feb-27 16:33N 43°25' E 004°53'1 1.1
2013-Feb-27 15:32N 43°26' E 004°53'0 0.0
2013-Feb-27 13:32N 43°26' E 004°53'0 0.0
2013-Feb-27 12:32N 43°26' E 004°53'0 0.0
2013-Feb-27 11:14N 43°26' E 004°53'0 0.0
2013-Feb-27 10:32N 43°26' E 004°53'0 0.0
2013-Feb-27 09:29N 43°26' E 004°53'0 0.0
2013-Feb-27 07:32N 43°26' E 004°53'0 0.0
2013-Feb-27 06:32N 43°26' E 004°53'0 0.0
2013-Feb-27 05:29N 43°26' E 004°53'0 0.0
2013-Feb-27 04:29N 43°26' E 004°53'0 0.0
2013-Feb-27 03:33N 43°26' E 004°53'0 0.0
2013-Feb-27 02:33N 43°26' E 004°53'0 0.0
2013-Feb-27 01:33N 43°26' E 004°53'0 0.0
2013-Feb-27 00:33N 43°26' E 004°53'0 0.0
2013-Feb-26 23:15N 43°26' E 004°53'0 0.0
2013-Feb-26 22:33N 43°26' E 004°53'0 0.0
2013-Feb-26 21:33N 43°26' E 004°53'0 0.0
2013-Feb-26 20:15N 43°26' E 004°53'0 0.0
2013-Feb-26 19:33N 43°26' E 004°53'0 0.0
2013-Feb-26 18:33N 43°26' E 004°53'0 0.0
2013-Feb-26 17:33N 43°26' E 004°53'0 0.0
2013-Feb-26 16:33N 43°26' E 004°53'0 0.0
2013-Feb-26 15:33N 43°26' E 004°53'0 0.0
2013-Feb-26 14:18N 43°26' E 004°53'0 0.0
2013-Feb-26 13:33N 43°26' E 004°53'0 0.0
2013-Feb-26 12:33N 43°26' E 004°53'0 0.0
2013-Feb-26 11:27N 43°26' E 004°53'0 0.0
2013-Feb-26 10:28N 43°26' E 004°53'0 0.0
2013-Feb-26 09:31N 43°26' E 004°53'0 0.0
2013-Feb-26 08:04N 43°26' E 004°53'0 0.0
2013-Feb-26 07:31N 43°26' E 004°53'0 0.0
2013-Feb-26 06:31N 43°26' E 004°53'0 0.0
2013-Feb-26 05:16N 43°26' E 004°53'0 0.0
2013-Feb-26 04:31N 43°26' E 004°53'0 0.0
2013-Feb-26 03:31N 43°26' E 004°53'0 0.0
2013-Feb-26 02:28N 43°26' E 004°53'0 0.0
2013-Feb-26 01:31N 43°26' E 004°53'0 0.0
2013-Feb-26 00:28N 43°26' E 004°53'0 0.0
2013-Feb-25 23:22N 43°26' E 004°53'0 0.0
2013-Feb-25 22:31N 43°26' E 004°53'0 0.0
2013-Feb-25 21:31N 43°26' E 004°53'0 0.0
2013-Feb-25 20:28N 43°26' E 004°53'0 0.0
2013-Feb-25 19:34N 43°26' E 004°53'0 0.0
2013-Feb-25 18:34N 43°26' E 004°53'0 0.0
2013-Feb-25 17:33N 43°26' E 004°53'0 0.0
2013-Feb-25 16:33N 43°26' E 004°53'0 0.0
2013-Feb-25 15:33N 43°26' E 004°53'0 0.0
2013-Feb-25 14:33N 43°26' E 004°53'0 0.0
2013-Feb-25 13:33N 43°26' E 004°53'0 0.0
2013-Feb-25 12:33N 43°26' E 004°53'0 0.0
2013-Feb-25 11:33N 43°26' E 004°53'0 0.0
2013-Feb-25 10:33N 43°26' E 004°53'0 0.0
2013-Feb-25 09:33N 43°26' E 004°53'0 0.0
2013-Feb-25 08:33N 43°26' E 004°53'0 0.0
2013-Feb-25 07:33N 43°26' E 004°53'0 0.0
2013-Feb-25 06:33N 43°26' E 004°53'0 0.0
2013-Feb-25 05:33N 43°26' E 004°53'0 0.1
2013-Feb-25 04:34N 43°26' E 004°54'2 1.9
2013-Feb-25 03:34N 43°25' E 004°56'0 0.1
2013-Feb-25 02:33N 43°25' E 004°56'0 0.0
2013-Feb-25 01:33N 43°25' E 004°56'0 0.0
2013-Feb-25 00:33N 43°25' E 004°56'0 0.0
2013-Feb-24 23:33N 43°25' E 004°56'0 0.0
2013-Feb-24 22:33N 43°25' E 004°56'0 0.0
2013-Feb-24 21:33N 43°25' E 004°56'0 0.0
2013-Feb-24 20:33N 43°25' E 004°56'0 0.0
2013-Feb-24 19:33N 43°25' E 004°56'0 0.0
2013-Feb-24 18:33N 43°25' E 004°56'0 0.0
2013-Feb-24 17:33N 43°25' E 004°56'0 0.0
2013-Feb-24 16:33N 43°25' E 004°56'0 0.0
2013-Feb-24 15:33N 43°25' E 004°56'0 0.0
2013-Feb-24 14:33N 43°25' E 004°56'0 0.0
2013-Feb-24 13:33N 43°25' E 004°56'0 0.0
2013-Feb-24 12:33N 43°25' E 004°56'0 0.0
2013-Feb-24 11:33N 43°25' E 004°56'0 0.0
2013-Feb-24 10:33N 43°25' E 004°56'0 0.0
2013-Feb-24 09:33N 43°25' E 004°56'0 0.0
2013-Feb-24 08:33N 43°25' E 004°56'0 0.0
2013-Feb-24 07:33N 43°25' E 004°56'0 0.0
2013-Feb-24 06:33N 43°25' E 004°56'0 0.0
2013-Feb-24 05:33N 43°25' E 004°56'0 0.0
2013-Feb-24 04:33N 43°25' E 004°56'0 0.0
2013-Feb-24 03:33N 43°25' E 004°56'0 0.0
2013-Feb-24 02:33N 43°25' E 004°56'0 0.0
2013-Feb-24 01:33N 43°25' E 004°56'0 0.1
2013-Feb-24 00:33N 43°25' E 004°56'6 6.4
2013-Feb-23 23:33N 43°19' E 004°60'6 6.0
2013-Feb-23 22:33N 43°13' E 005°02'4 3.8
2013-Feb-23 21:33N 43°10' E 005°04'3 3.3
2013-Feb-23 20:33N 43°07' E 005°07'  

Dump ship's entire track history

sailing weather and tide predictions

Sisu Castor — V2PY6 — position and weather